Terminal Aerodrome Forecast
Issued by NWS

Home | Current Version | Previous Version | Text Only | Print | Product List | Glossary On
Versions: 1 2 3 4 5 6 7 8 9 10 11 12 13 14 15 16 17 18 19 20 21 22 23 24 25 26 27 28
000
FTUS41 KGYX 280616 AAA
TAFLEB
TAF AMD
KLEB 280616Z 2806/2906 19005KT 6SM BR BKN007
     FM281000 20008KT 1 1/2SM BR BKN006
     FM281300 22010KT 6SM HZ BKN050 PROB30 2815/2818 4SM -TSRA
      BKN050CB
     FM282000 28010G17KT P6SM OVC050
     FM290000 VRB03KT P6SM SKC=

USA.gov is the U.S. government's official web portal to all federal, state and local government web resources and services.